sensor_id;sensor_type;location;lat;lon;timestamp;P1;durP1;ratioP1;P2;durP2;ratioP2
77736;SDS011;66903;59.926;30.404;2023-10-31T00:02:04;2.72;;;0.90;;
77736;SDS011;66903;59.926;30.404;2023-10-31T00:07:15;3.75;;;1.30;;
77736;SDS011;66903;59.926;30.404;2023-10-31T00:12:26;2.85;;;1.00;;
77736;SDS011;66903;59.926;30.404;2023-10-31T00:17:36;3.72;;;1.10;;
77736;SDS011;66903;59.926;30.404;2023-10-31T00:22:47;2.88;;;1.00;;
77736;SDS011;66903;59.926;30.404;2023-10-31T00:27:58;3.05;;;1.10;;
77736;SDS011;66903;59.926;30.404;2023-10-31T00:33:09;2.90;;;1.00;;
77736;SDS011;66903;59.926;30.404;2023-10-31T00:38:19;2.97;;;1.00;;
77736;SDS011;66903;59.926;30.404;2023-10-31T00:43:30;2.58;;;0.88;;
77736;SDS011;66903;59.926;30.404;2023-10-31T00:48:41;2.90;;;1.10;;
77736;SDS011;66903;59.926;30.404;2023-10-31T00:53:51;2.70;;;1.02;;
77736;SDS011;66903;59.926;30.404;2023-10-31T00:59:02;3.08;;;0.93;;
77736;SDS011;66903;59.926;30.404;2023-10-31T01:04:13;2.22;;;0.93;;
77736;SDS011;66903;59.926;30.404;2023-10-31T01:09:24;2.67;;;0.90;;
77736;SDS011;66903;59.926;30.404;2023-10-31T01:14:34;3.53;;;1.58;;
77736;SDS011;66903;59.926;30.404;2023-10-31T01:19:45;2.25;;;0.80;;
77736;SDS011;66903;59.926;30.404;2023-10-31T01:24:56;2.92;;;1.00;;
77736;SDS011;66903;59.926;30.404;2023-10-31T01:30:07;3.35;;;1.00;;
77736;SDS011;66903;59.926;30.404;2023-10-31T01:35:18;2.97;;;1.05;;
77736;SDS011;66903;59.926;30.404;2023-10-31T01:40:29;2.42;;;0.90;;
77736;SDS011;66903;59.926;30.404;2023-10-31T01:45:40;3.05;;;1.10;;
77736;SDS011;66903;59.926;30.404;2023-10-31T01:50:51;4.45;;;1.10;;
77736;SDS011;66903;59.926;30.404;2023-10-31T01:56:02;1.63;;;0.80;;
77736;SDS011;66903;59.926;30.404;2023-10-31T02:01:14;2.58;;;0.88;;
77736;SDS011;66903;59.926;30.404;2023-10-31T02:06:25;4.60;;;0.82;;
77736;SDS011;66903;59.926;30.404;2023-10-31T02:11:36;2.35;;;0.93;;
77736;SDS011;66903;59.926;30.404;2023-10-31T02:16:47;3.00;;;0.98;;
77736;SDS011;66903;59.926;30.404;2023-10-31T02:21:58;2.97;;;0.90;;
77736;SDS011;66903;59.926;30.404;2023-10-31T02:27:09;3.13;;;1.00;;
77736;SDS011;66903;59.926;30.404;2023-10-31T02:32:20;3.30;;;1.00;;
77736;SDS011;66903;59.926;30.404;2023-10-31T02:37:31;4.32;;;1.15;;
77736;SDS011;66903;59.926;30.404;2023-10-31T02:42:42;2.33;;;0.80;;
77736;SDS011;66903;59.926;30.404;2023-10-31T02:47:52;2.55;;;0.90;;
77736;SDS011;66903;59.926;30.404;2023-10-31T02:53:03;2.90;;;1.00;;
77736;SDS011;66903;59.926;30.404;2023-10-31T02:58:14;3.28;;;1.00;;
77736;SDS011;66903;59.926;30.404;2023-10-31T03:03:27;2.70;;;0.90;;
77736;SDS011;66903;59.926;30.404;2023-10-31T03:08:38;2.45;;;0.90;;
77736;SDS011;66903;59.926;30.404;2023-10-31T03:13:49;3.25;;;0.85;;
77736;SDS011;66903;59.926;30.404;2023-10-31T03:19:00;2.85;;;0.90;;
77736;SDS011;66903;59.926;30.404;2023-10-31T03:24:11;3.20;;;1.10;;
77736;SDS011;66903;59.926;30.404;2023-10-31T03:29:21;3.58;;;1.13;;
77736;SDS011;66903;59.926;30.404;2023-10-31T03:34:32;3.80;;;1.27;;
77736;SDS011;66903;59.926;30.404;2023-10-31T03:39:43;3.05;;;1.05;;
77736;SDS011;66903;59.926;30.404;2023-10-31T03:44:54;2.90;;;1.13;;
77736;SDS011;66903;59.926;30.404;2023-10-31T03:50:05;3.53;;;1.15;;
77736;SDS011;66903;59.926;30.404;2023-10-31T03:55:16;4.20;;;1.25;;
77736;SDS011;66903;59.926;30.404;2023-10-31T04:00:26;3.63;;;1.30;;
77736;SDS011;66903;59.926;30.404;2023-10-31T04:05:37;4.28;;;1.40;;
77736;SDS011;66903;59.926;30.404;2023-10-31T04:10:48;4.70;;;1.50;;
77736;SDS011;66903;59.926;30.404;2023-10-31T04:15:59;3.03;;;1.05;;
77736;SDS011;66903;59.926;30.404;2023-10-31T04:21:09;2.80;;;1.00;;
77736;SDS011;66903;59.926;30.404;2023-10-31T04:26:20;3.20;;;1.10;;
77736;SDS011;66903;59.926;30.404;2023-10-31T04:31:31;4.50;;;1.40;;
77736;SDS011;66903;59.926;30.404;2023-10-31T04:36:42;3.67;;;1.33;;
77736;SDS011;66903;59.926;30.404;2023-10-31T04:41:52;2.80;;;0.98;;
77736;SDS011;66903;59.926;30.404;2023-10-31T04:47:03;3.58;;;1.15;;
77736;SDS011;66903;59.926;30.404;2023-10-31T04:52:14;5.15;;;1.20;;
77736;SDS011;66903;59.926;30.404;2023-10-31T04:57:26;2.78;;;1.02;;
77736;SDS011;66903;59.926;30.404;2023-10-31T05:02:37;3.30;;;1.17;;
77736;SDS011;66903;59.926;30.404;2023-10-31T05:07:48;3.30;;;1.10;;
77736;SDS011;66903;59.926;30.404;2023-10-31T05:13:00;2.72;;;0.90;;
77736;SDS011;66903;59.926;30.404;2023-10-31T05:18:12;2.95;;;1.00;;
77736;SDS011;66903;59.926;30.404;2023-10-31T05:23:23;2.67;;;0.85;;
77736;SDS011;66903;59.926;30.404;2023-10-31T05:28:34;3.10;;;1.10;;
77736;SDS011;66903;59.926;30.404;2023-10-31T05:33:44;3.20;;;1.00;;
77736;SDS011;66903;59.926;30.404;2023-10-31T05:38:55;2.50;;;0.88;;
77736;SDS011;66903;59.926;30.404;2023-10-31T05:44:06;3.20;;;1.00;;
77736;SDS011;66903;59.926;30.404;2023-10-31T05:49:17;3.13;;;1.10;;
77736;SDS011;66903;59.926;30.404;2023-10-31T05:54:29;2.75;;;0.93;;
77736;SDS011;66903;59.926;30.404;2023-10-31T05:59:40;3.03;;;1.00;;
77736;SDS011;66903;59.926;30.404;2023-10-31T06:04:51;2.00;;;0.90;;
77736;SDS011;66903;59.926;30.404;2023-10-31T06:10:01;2.90;;;1.05;;
77736;SDS011;66903;59.926;30.404;2023-10-31T06:15:14;2.58;;;0.93;;
77736;SDS011;66903;59.926;30.404;2023-10-31T06:20:25;3.28;;;1.08;;
77736;SDS011;66903;59.926;30.404;2023-10-31T06:25:36;2.75;;;1.02;;
77736;SDS011;66903;59.926;30.404;2023-10-31T06:30:47;3.20;;;1.10;;
77736;SDS011;66903;59.926;30.404;2023-10-31T06:35:58;2.88;;;1.10;;
77736;SDS011;66903;59.926;30.404;2023-10-31T06:41:09;3.70;;;1.38;;
77736;SDS011;66903;59.926;30.404;2023-10-31T06:46:19;2.70;;;0.98;;
77736;SDS011;66903;59.926;30.404;2023-10-31T06:51:30;3.63;;;1.23;;
77736;SDS011;66903;59.926;30.404;2023-10-31T06:56:41;2.65;;;0.90;;
77736;SDS011;66903;59.926;30.404;2023-10-31T07:01:52;2.78;;;1.05;;
77736;SDS011;66903;59.926;30.404;2023-10-31T07:07:03;4.20;;;1.27;;
77736;SDS011;66903;59.926;30.404;2023-10-31T07:12:14;3.97;;;1.10;;
77736;SDS011;66903;59.926;30.404;2023-10-31T07:17:26;3.95;;;1.10;;
77736;SDS011;66903;59.926;30.404;2023-10-31T07:22:37;4.88;;;1.00;;
77736;SDS011;66903;59.926;30.404;2023-10-31T07:27:47;2.95;;;1.25;;
77736;SDS011;66903;59.926;30.404;2023-10-31T07:32:58;4.63;;;1.00;;
77736;SDS011;66903;59.926;30.404;2023-10-31T07:38:09;2.70;;;1.00;;
77736;SDS011;66903;59.926;30.404;2023-10-31T07:43:20;3.22;;;1.33;;
77736;SDS011;66903;59.926;30.404;2023-10-31T07:48:31;3.35;;;1.30;;
77736;SDS011;66903;59.926;30.404;2023-10-31T07:53:42;3.20;;;1.25;;
77736;SDS011;66903;59.926;30.404;2023-10-31T07:58:53;5.50;;;1.15;;
77736;SDS011;66903;59.926;30.404;2023-10-31T08:04:05;3.10;;;1.23;;
77736;SDS011;66903;59.926;30.404;2023-10-31T08:09:16;4.07;;;1.35;;
77736;SDS011;66903;59.926;30.404;2023-10-31T08:14:26;3.45;;;1.30;;
77736;SDS011;66903;59.926;30.404;2023-10-31T08:19:37;3.53;;;1.30;;
77736;SDS011;66903;59.926;30.404;2023-10-31T08:24:48;4.50;;;1.20;;
77736;SDS011;66903;59.926;30.404;2023-10-31T08:29:59;3.72;;;1.30;;
77736;SDS011;66903;59.926;30.404;2023-10-31T08:35:09;3.50;;;1.10;;
77736;SDS011;66903;59.926;30.404;2023-10-31T08:40:20;3.88;;;1.20;;
77736;SDS011;66903;59.926;30.404;2023-10-31T08:45:31;3.30;;;1.23;;
77736;SDS011;66903;59.926;30.404;2023-10-31T08:50:42;3.92;;;1.80;;
77736;SDS011;66903;59.926;30.404;2023-10-31T08:55:53;3.33;;;1.23;;
77736;SDS011;66903;59.926;30.404;2023-10-31T09:01:03;3.45;;;1.35;;
77736;SDS011;66903;59.926;30.404;2023-10-31T09:06:14;4.10;;;1.65;;
77736;SDS011;66903;59.926;30.404;2023-10-31T09:11:25;4.95;;;1.48;;
77736;SDS011;66903;59.926;30.404;2023-10-31T09:16:36;4.15;;;1.50;;
77736;SDS011;66903;59.926;30.404;2023-10-31T09:21:47;3.95;;;1.40;;
77736;SDS011;66903;59.926;30.404;2023-10-31T09:26:57;3.30;;;1.30;;
77736;SDS011;66903;59.926;30.404;2023-10-31T09:32:08;4.18;;;1.50;;
77736;SDS011;66903;59.926;30.404;2023-10-31T09:37:19;4.10;;;1.45;;
77736;SDS011;66903;59.926;30.404;2023-10-31T09:42:30;5.10;;;1.38;;
77736;SDS011;66903;59.926;30.404;2023-10-31T09:47:41;4.18;;;1.48;;
77736;SDS011;66903;59.926;30.404;2023-10-31T09:52:53;8.68;;;2.03;;
77736;SDS011;66903;59.926;30.404;2023-10-31T09:58:05;4.10;;;1.55;;
77736;SDS011;66903;59.926;30.404;2023-10-31T10:03:16;4.93;;;1.60;;
77736;SDS011;66903;59.926;30.404;2023-10-31T10:08:27;3.50;;;1.38;;
77736;SDS011;66903;59.926;30.404;2023-10-31T10:13:38;3.75;;;1.42;;
77736;SDS011;66903;59.926;30.404;2023-10-31T10:18:49;3.92;;;1.65;;
77736;SDS011;66903;59.926;30.404;2023-10-31T10:24:00;3.03;;;1.17;;
77736;SDS011;66903;59.926;30.404;2023-10-31T10:29:11;3.70;;;1.15;;
77736;SDS011;66903;59.926;30.404;2023-10-31T10:34:22;3.92;;;1.17;;
77736;SDS011;66903;59.926;30.404;2023-10-31T10:39:34;3.08;;;1.20;;
77736;SDS011;66903;59.926;30.404;2023-10-31T10:44:48;3.60;;;1.23;;
77736;SDS011;66903;59.926;30.404;2023-10-31T10:50:01;3.90;;;1.30;;
77736;SDS011;66903;59.926;30.404;2023-10-31T10:55:18;3.50;;;1.15;;
77736;SDS011;66903;59.926;30.404;2023-10-31T11:00:32;3.33;;;1.10;;
77736;SDS011;66903;59.926;30.404;2023-10-31T11:05:45;3.05;;;1.25;;
77736;SDS011;66903;59.926;30.404;2023-10-31T11:10:56;3.17;;;1.10;;
77736;SDS011;66903;59.926;30.404;2023-10-31T11:16:09;3.15;;;1.08;;
77736;SDS011;66903;59.926;30.404;2023-10-31T11:21:29;2.28;;;0.82;;
77736;SDS011;66903;59.926;30.404;2023-10-31T11:26:40;2.55;;;0.93;;
77736;SDS011;66903;59.926;30.404;2023-10-31T11:32:01;2.97;;;1.05;;
77736;SDS011;66903;59.926;30.404;2023-10-31T11:37:22;2.25;;;0.85;;
77736;SDS011;66903;59.926;30.404;2023-10-31T11:42:41;3.63;;;1.02;;
77736;SDS011;66903;59.926;30.404;2023-10-31T11:47:52;2.28;;;0.90;;
77736;SDS011;66903;59.926;30.404;2023-10-31T11:53:04;3.20;;;1.30;;
77736;SDS011;66903;59.926;30.404;2023-10-31T11:58:18;2.92;;;0.98;;
77736;SDS011;66903;59.926;30.404;2023-10-31T12:03:36;3.22;;;0.98;;
77736;SDS011;66903;59.926;30.404;2023-10-31T12:08:48;2.80;;;0.90;;
77736;SDS011;66903;59.926;30.404;2023-10-31T12:14:01;2.35;;;0.80;;
77736;SDS011;66903;59.926;30.404;2023-10-31T12:19:15;2.50;;;1.10;;
77736;SDS011;66903;59.926;30.404;2023-10-31T12:24:26;2.88;;;1.10;;
77736;SDS011;66903;59.926;30.404;2023-10-31T12:29:36;2.50;;;0.80;;
77736;SDS011;66903;59.926;30.404;2023-10-31T12:34:47;2.67;;;1.00;;
77736;SDS011;66903;59.926;30.404;2023-10-31T12:40:00;2.38;;;0.90;;
77736;SDS011;66903;59.926;30.404;2023-10-31T12:45:14;2.17;;;0.80;;
77736;SDS011;66903;59.926;30.404;2023-10-31T12:50:27;2.55;;;0.85;;
77736;SDS011;66903;59.926;30.404;2023-10-31T12:55:39;2.63;;;0.90;;
77736;SDS011;66903;59.926;30.404;2023-10-31T13:00:51;4.25;;;1.17;;
77736;SDS011;66903;59.926;30.404;2023-10-31T13:11:23;2.42;;;0.95;;
77736;SDS011;66903;59.926;30.404;2023-10-31T13:16:39;2.90;;;1.08;;
77736;SDS011;66903;59.926;30.404;2023-10-31T13:21:49;3.20;;;0.82;;
77736;SDS011;66903;59.926;30.404;2023-10-31T13:27:01;2.97;;;1.15;;
77736;SDS011;66903;59.926;30.404;2023-10-31T13:32:13;3.05;;;0.95;;
77736;SDS011;66903;59.926;30.404;2023-10-31T13:37:24;3.28;;;1.00;;
77736;SDS011;66903;59.926;30.404;2023-10-31T13:42:35;3.92;;;1.10;;
77736;SDS011;66903;59.926;30.404;2023-10-31T13:47:46;3.60;;;1.20;;
77736;SDS011;66903;59.926;30.404;2023-10-31T13:52:57;2.38;;;0.90;;
77736;SDS011;66903;59.926;30.404;2023-10-31T13:58:08;3.72;;;1.02;;
77736;SDS011;66903;59.926;30.404;2023-10-31T14:03:18;3.25;;;1.10;;
77736;SDS011;66903;59.926;30.404;2023-10-31T14:08:30;2.70;;;1.00;;
77736;SDS011;66903;59.926;30.404;2023-10-31T14:13:41;3.17;;;1.05;;
77736;SDS011;66903;59.926;30.404;2023-10-31T14:18:54;3.25;;;1.00;;
77736;SDS011;66903;59.926;30.404;2023-10-31T14:24:05;2.90;;;1.10;;
77736;SDS011;66903;59.926;30.404;2023-10-31T14:29:17;3.42;;;0.90;;
77736;SDS011;66903;59.926;30.404;2023-10-31T14:34:31;2.40;;;0.90;;
77736;SDS011;66903;59.926;30.404;2023-10-31T14:39:42;3.10;;;1.08;;
77736;SDS011;66903;59.926;30.404;2023-10-31T14:44:53;3.03;;;1.10;;
77736;SDS011;66903;59.926;30.404;2023-10-31T14:50:06;4.63;;;1.00;;
77736;SDS011;66903;59.926;30.404;2023-10-31T14:55:18;3.63;;;0.98;;
77736;SDS011;66903;59.926;30.404;2023-10-31T15:00:29;4.18;;;1.15;;
77736;SDS011;66903;59.926;30.404;2023-10-31T15:05:40;4.63;;;1.00;;
77736;SDS011;66903;59.926;30.404;2023-10-31T15:10:52;3.80;;;1.00;;
77736;SDS011;66903;59.926;30.404;2023-10-31T15:16:03;3.40;;;0.98;;
77736;SDS011;66903;59.926;30.404;2023-10-31T15:21:14;2.70;;;0.95;;
77736;SDS011;66903;59.926;30.404;2023-10-31T15:26:25;3.00;;;0.90;;
77736;SDS011;66903;59.926;30.404;2023-10-31T15:31:42;2.35;;;0.77;;
77736;SDS011;66903;59.926;30.404;2023-10-31T15:36:53;3.50;;;0.90;;
77736;SDS011;66903;59.926;30.404;2023-10-31T15:42:04;1.95;;;0.70;;
77736;SDS011;66903;59.926;30.404;2023-10-31T15:47:16;2.90;;;0.90;;
77736;SDS011;66903;59.926;30.404;2023-10-31T15:52:27;3.83;;;1.20;;
77736;SDS011;66903;59.926;30.404;2023-10-31T15:57:37;2.40;;;0.90;;
77736;SDS011;66903;59.926;30.404;2023-10-31T16:02:49;2.55;;;0.80;;
77736;SDS011;66903;59.926;30.404;2023-10-31T16:07:59;2.60;;;0.88;;
77736;SDS011;66903;59.926;30.404;2023-10-31T16:13:10;2.35;;;0.80;;
77736;SDS011;66903;59.926;30.404;2023-10-31T16:18:21;2.78;;;0.95;;
77736;SDS011;66903;59.926;30.404;2023-10-31T16:23:32;3.15;;;0.80;;
77736;SDS011;66903;59.926;30.404;2023-10-31T16:28:44;2.50;;;0.90;;
77736;SDS011;66903;59.926;30.404;2023-10-31T16:33:59;3.35;;;0.90;;
77736;SDS011;66903;59.926;30.404;2023-10-31T16:39:10;5.78;;;0.80;;
77736;SDS011;66903;59.926;30.404;2023-10-31T16:44:21;4.60;;;0.80;;
77736;SDS011;66903;59.926;30.404;2023-10-31T16:49:32;3.60;;;0.95;;
77736;SDS011;66903;59.926;30.404;2023-10-31T16:54:43;2.63;;;0.63;;
77736;SDS011;66903;59.926;30.404;2023-10-31T16:59:53;3.33;;;0.80;;
77736;SDS011;66903;59.926;30.404;2023-10-31T17:05:04;4.57;;;1.00;;
77736;SDS011;66903;59.926;30.404;2023-10-31T17:10:15;3.00;;;0.98;;
77736;SDS011;66903;59.926;30.404;2023-10-31T17:15:26;1.90;;;0.77;;
77736;SDS011;66903;59.926;30.404;2023-10-31T17:20:37;5.32;;;1.17;;
77736;SDS011;66903;59.926;30.404;2023-10-31T17:25:48;1.95;;;0.80;;
77736;SDS011;66903;59.926;30.404;2023-10-31T17:30:59;3.65;;;0.80;;
77736;SDS011;66903;59.926;30.404;2023-10-31T17:36:10;3.03;;;1.00;;
77736;SDS011;66903;59.926;30.404;2023-10-31T17:41:21;2.83;;;0.90;;
77736;SDS011;66903;59.926;30.404;2023-10-31T17:46:32;2.45;;;0.82;;
77736;SDS011;66903;59.926;30.404;2023-10-31T17:51:43;2.38;;;0.88;;
77736;SDS011;66903;59.926;30.404;2023-10-31T17:56:53;2.65;;;0.98;;
77736;SDS011;66903;59.926;30.404;2023-10-31T18:02:04;2.28;;;0.65;;
77736;SDS011;66903;59.926;30.404;2023-10-31T18:07:15;2.08;;;0.70;;
77736;SDS011;66903;59.926;30.404;2023-10-31T18:12:26;2.22;;;0.70;;
77736;SDS011;66903;59.926;30.404;2023-10-31T18:17:37;2.83;;;0.68;;
77736;SDS011;66903;59.926;30.404;2023-10-31T18:22:48;2.30;;;0.80;;
77736;SDS011;66903;59.926;30.404;2023-10-31T18:27:58;2.13;;;0.80;;
77736;SDS011;66903;59.926;30.404;2023-10-31T18:33:09;2.05;;;0.70;;
77736;SDS011;66903;59.926;30.404;2023-10-31T18:38:21;2.85;;;1.00;;
77736;SDS011;66903;59.926;30.404;2023-10-31T18:43:31;2.08;;;0.80;;
77736;SDS011;66903;59.926;30.404;2023-10-31T18:48:42;3.33;;;0.73;;
77736;SDS011;66903;59.926;30.404;2023-10-31T18:53:54;1.88;;;0.63;;
77736;SDS011;66903;59.926;30.404;2023-10-31T18:59:05;1.15;;;0.55;;
77736;SDS011;66903;59.926;30.404;2023-10-31T19:04:16;1.50;;;0.60;;
77736;SDS011;66903;59.926;30.404;2023-10-31T19:09:27;1.15;;;0.50;;
77736;SDS011;66903;59.926;30.404;2023-10-31T19:14:38;1.70;;;0.60;;
77736;SDS011;66903;59.926;30.404;2023-10-31T19:19:49;1.88;;;0.52;;
77736;SDS011;66903;59.926;30.404;2023-10-31T19:30:12;2.03;;;0.65;;
77736;SDS011;66903;59.926;30.404;2023-10-31T19:35:25;0.93;;;0.40;;
77736;SDS011;66903;59.926;30.404;2023-10-31T19:40:36;3.17;;;0.60;;
77736;SDS011;66903;59.926;30.404;2023-10-31T19:45:48;1.60;;;0.52;;
77736;SDS011;66903;59.926;30.404;2023-10-31T19:50:59;2.20;;;0.70;;
77736;SDS011;66903;59.926;30.404;2023-10-31T19:56:17;0.88;;;0.40;;
77736;SDS011;66903;59.926;30.404;2023-10-31T20:01:31;1.95;;;0.60;;
77736;SDS011;66903;59.926;30.404;2023-10-31T20:06:41;1.00;;;0.50;;
77736;SDS011;66903;59.926;30.404;2023-10-31T20:11:52;2.53;;;0.73;;
77736;SDS011;66903;59.926;30.404;2023-10-31T20:17:05;1.00;;;0.40;;
77736;SDS011;66903;59.926;30.404;2023-10-31T20:22:16;2.85;;;0.70;;
77736;SDS011;66903;59.926;30.404;2023-10-31T20:27:27;2.28;;;0.52;;
77736;SDS011;66903;59.926;30.404;2023-10-31T20:32:37;3.15;;;0.63;;
77736;SDS011;66903;59.926;30.404;2023-10-31T20:37:49;1.33;;;0.52;;
77736;SDS011;66903;59.926;30.404;2023-10-31T20:43:00;0.80;;;0.40;;
77736;SDS011;66903;59.926;30.404;2023-10-31T20:48:11;0.77;;;0.30;;
77736;SDS011;66903;59.926;30.404;2023-10-31T20:53:22;3.25;;;0.50;;
77736;SDS011;66903;59.926;30.404;2023-10-31T20:58:34;0.98;;;0.40;;
77736;SDS011;66903;59.926;30.404;2023-10-31T21:03:44;0.50;;;0.25;;
77736;SDS011;66903;59.926;30.404;2023-10-31T21:08:55;1.50;;;0.47;;
77736;SDS011;66903;59.926;30.404;2023-10-31T21:14:06;0.25;;;0.20;;
77736;SDS011;66903;59.926;30.404;2023-10-31T21:19:18;0.95;;;0.43;;
77736;SDS011;66903;59.926;30.404;2023-10-31T21:24:29;0.63;;;0.25;;
77736;SDS011;66903;59.926;30.404;2023-10-31T21:29:40;0.55;;;0.20;;
77736;SDS011;66903;59.926;30.404;2023-10-31T21:34:50;1.10;;;0.30;;
77736;SDS011;66903;59.926;30.404;2023-10-31T21:40:02;0.22;;;0.20;;
77736;SDS011;66903;59.926;30.404;2023-10-31T21:45:15;1.15;;;0.38;;
77736;SDS011;66903;59.926;30.404;2023-10-31T21:50:26;0.95;;;0.35;;
77736;SDS011;66903;59.926;30.404;2023-10-31T21:55:37;1.20;;;0.50;;
77736;SDS011;66903;59.926;30.404;2023-10-31T22:00:48;0.88;;;0.40;;
77736;SDS011;66903;59.926;30.404;2023-10-31T22:05:59;1.38;;;0.50;;
77736;SDS011;66903;59.926;30.404;2023-10-31T22:11:09;0.47;;;0.30;;
77736;SDS011;66903;59.926;30.404;2023-10-31T22:16:20;0.80;;;0.35;;
77736;SDS011;66903;59.926;30.404;2023-10-31T22:21:31;0.20;;;0.20;;
77736;SDS011;66903;59.926;30.404;2023-10-31T22:26:42;0.88;;;0.50;;
77736;SDS011;66903;59.926;30.404;2023-10-31T22:31:53;1.02;;;0.30;;
77736;SDS011;66903;59.926;30.404;2023-10-31T22:37:03;0.60;;;0.25;;
77736;SDS011;66903;59.926;30.404;2023-10-31T22:42:15;0.30;;;0.28;;
77736;SDS011;66903;59.926;30.404;2023-10-31T22:47:25;1.20;;;0.30;;
77736;SDS011;66903;59.926;30.404;2023-10-31T22:52:36;0.95;;;0.47;;
77736;SDS011;66903;59.926;30.404;2023-10-31T22:57:47;1.60;;;0.52;;
77736;SDS011;66903;59.926;30.404;2023-10-31T23:02:58;1.25;;;0.40;;
77736;SDS011;66903;59.926;30.404;2023-10-31T23:08:11;0.57;;;0.30;;
77736;SDS011;66903;59.926;30.404;2023-10-31T23:13:22;1.13;;;0.43;;
77736;SDS011;66903;59.926;30.404;2023-10-31T23:18:33;0.32;;;0.30;;
77736;SDS011;66903;59.926;30.404;2023-10-31T23:23:44;2.50;;;0.40;;
77736;SDS011;66903;59.926;30.404;2023-10-31T23:28:55;1.20;;;0.40;;
77736;SDS011;66903;59.926;30.404;2023-10-31T23:34:08;1.77;;;0.85;;
77736;SDS011;66903;59.926;30.404;2023-10-31T23:39:18;2.03;;;0.40;;
77736;SDS011;66903;59.926;30.404;2023-10-31T23:44:29;0.85;;;0.40;;
77736;SDS011;66903;59.926;30.404;2023-10-31T23:49:40;1.20;;;0.47;;
77736;SDS011;66903;59.926;30.404;2023-10-31T23:54:51;0.90;;;0.20;;
